Time;durP1;ratioP1;P1;durP2;ratioP2;P2;SDS_P1;SDS_P2;PMS_P1;PMS_P2;Temp;Humidity;BMP_temperature;BMP_pressure;BME280_temperature;BME280_humidity;BME280_pressure;Samples;Min_cycle;Max_cycle;Signal;HPM_P1;HPM_P2
2023/05/23 00:01:47;;;;;;;;;;;;;;;;;;5046551;28;19966;-54
2023/05/23 00:04:16;;;;;;;;;;;;;;;;;;5046600;28;20390;-54
2023/05/23 00:06:52;;;;;;;;;;;;;;;;;;5046366;28;20329;-54
2023/05/23 00:09:18;;;;;;;;;;;;;;;;;;5043899;28;19916;-54
2023/05/23 00:11:44;;;;;;;;;;;;;;;;;;5043939;28;20375;-54
2023/05/23 00:14:10;;;;;;;;;;;;;;;;;;5043562;28;19961;-54
2023/05/23 00:16:40;;;;;;;;;;;;;;;;;;5046366;28;19909;-54
2023/05/23 00:19:07;;;;;;;;;;;;;;;;;;5028096;28;19995;-54
2023/05/23 00:21:33;;;;;;;;;;;;;;;;;;5045020;28;20423;-54
2023/05/23 00:24:01;;;;;;;;;;;;;;;;;;5042097;28;20475;-54
2023/05/23 00:26:28;;;;;;;;;;;;;;;;;;5043874;28;19917;-54
2023/05/23 00:28:55;;;;;;;;;;;;;;;;;;5040380;28;20632;-54
2023/05/23 00:31:21;;;;;;;;;;;;;;;;;;5043430;28;20003;-54
2023/05/23 00:33:47;;;;;;;;;;;;;;;;;;5043893;28;19987;-54
2023/05/23 00:36:13;;;;;;;;;;;;;;;;;;5039876;28;19927;-54
2023/05/23 00:38:39;;;;;;;;;;;;;;;;;;5045363;28;19918;-54
2023/05/23 00:41:05;;;;;;;;;;;;;;;;;;5025963;28;20295;-54
2023/05/23 00:43:31;;;;;;;;;;;;;;;;;;5043214;28;20140;-54
2023/05/23 00:45:57;;;;;;;;;;;;;;;;;;5045734;28;19912;-54
2023/05/23 00:48:23;;;;;;;;;;;;;;;;;;5045716;28;19939;-53
2023/05/23 00:50:49;;;;;;;;;;;;;;;;;;5027335;28;20022;-54
2023/05/23 00:53:16;;;;;;;;;;;;;;;;;;5045816;28;19947;-54
2023/05/23 00:55:42;;;;;;;;;;;;;;;;;;5046992;28;19978;-54
2023/05/23 00:58:08;;;;;;;;;;;;;;;;;;5044683;28;19908;-53
2023/05/23 01:00:34;;;;;;;;;;;;;;;;;;5045266;28;20431;-54
2023/05/23 01:03:00;;;;;;;;;;;;;;;;;;5045374;28;19913;-54
2023/05/23 01:05:26;;;;;;;;;;;;;;;;;;5044042;28;20335;-54
2023/05/23 01:07:52;;;;;;;;;;;;;;;;;;5045728;28;19991;-54
2023/05/23 01:10:18;;;;;;;;;;;;;;;;;;5046260;28;19951;-54
2023/05/23 01:12:45;;;;;;;;;;;;;;;;;;5038277;28;19948;-54
2023/05/23 01:15:11;;;;;;;;;;;;;;;;;;5041980;28;20350;-54
2023/05/23 01:17:40;;;;;;;;;;;;;;;;;;5044764;28;20000;-54
2023/05/23 01:20:08;;;;;;;;;;;;;;;;;;5028000;28;19909;-54
2023/05/23 01:22:34;;;;;;;;;;;;;;;;;;5043601;28;19999;-54
2023/05/23 01:25:00;;;;;;;;;;;;;;;;;;5046572;28;20036;-54
2023/05/23 01:27:26;;;;;;;;;;;;;;;;;;5040480;28;19963;-54
2023/05/23 01:29:52;;;;;;;;;;;;;;;;;;5044859;28;19956;-54
2023/05/23 01:32:18;;;;;;;;;;;;;;;;;;5046366;28;20092;-54
2023/05/23 01:34:44;;;;;;;;;;;;;;;;;;5044648;28;20378;-54
2023/05/23 01:37:13;;;;;;;;;;;;;;;;;;5040805;28;20438;-54
2023/05/23 01:39:39;;;;;;;;;;;;;;;;;;5044320;28;20299;-54
2023/05/23 01:42:05;;;;;;;;;;;;;;;;;;5042762;28;19916;-55
2023/05/23 01:44:31;;;;;;;;;;;;;;;;;;5048263;28;19917;-55
2023/05/23 01:46:57;;;;;;;;;;;;;;;;;;5046671;28;19933;-55
2023/05/23 01:49:23;;;;;;;;;;;;;;;;;;5050170;28;20367;-54
2023/05/23 01:51:49;;;;;;;;;;;;;;;;;;5028295;28;20027;-55
2023/05/23 01:54:15;;;;;;;;;;;;;;;;;;5029203;28;19980;-54
2023/05/23 01:56:41;;;;;;;;;;;;;;;;;;5046418;28;20295;-55
2023/05/23 01:59:07;;;;;;;;;;;;;;;;;;5049042;28;20466;-54
2023/05/23 02:01:34;;;;;;;;;;;;;;;;;;5044628;28;19935;-55
2023/05/23 02:04:00;;;;;;;;;;;;;;;;;;5043855;28;19916;-55
2023/05/23 02:06:26;;;;;;;;;;;;;;;;;;5045955;28;19919;-54
2023/05/23 02:08:52;;;;;;;;;;;;;;;;;;5043166;28;20018;-55
2023/05/23 02:11:18;;;;;;;;;;;;;;;;;;5045131;28;19920;-55
2023/05/23 02:13:44;;;;;;;;;;;;;;;;;;5045177;28;19913;-54
2023/05/23 02:16:10;;;;;;;;;;;;;;;;;;5045564;28;20320;-55
2023/05/23 02:18:37;;;;;;;;;;;;;;;;;;5047907;28;19964;-55
2023/05/23 02:21:03;;;;;;;;;;;;;;;;;;5046476;28;19919;-54
2023/05/23 02:23:29;;;;;;;;;;;;;;;;;;5046273;28;19909;-54
2023/05/23 02:25:55;;;;;;;;;;;;;;;;;;5045445;28;19944;-54
2023/05/23 02:28:21;;;;;;;;;;;;;;;;;;5044733;28;19920;-54
2023/05/23 02:30:47;;;;;;;;;;;;;;;;;;5030414;28;19921;-55
2023/05/23 02:33:13;;;;;;;;;;;;;;;;;;5042912;28;19956;-55
2023/05/23 02:35:39;;;;;;;;;;;;;;;;;;5043958;28;20281;-54
2023/05/23 02:38:05;;;;;;;;;;;;;;;;;;5046585;28;19912;-54
2023/05/23 02:40:31;;;;;;;;;;;;;;;;;;5046902;28;20367;-54
2023/05/23 02:42:58;;;;;;;;;;;;;;;;;;5044497;28;19909;-54
2023/05/23 02:45:24;;;;;;;;;;;;;;;;;;5047913;28;19908;-54
2023/05/23 02:47:50;;;;;;;;;;;;;;;;;;5045688;28;20030;-54
2023/05/23 02:50:16;;;;;;;;;;;;;;;;;;5047018;28;19912;-54
2023/05/23 02:52:42;;;;;;;;;;;;;;;;;;5042994;28;20282;-54
2023/05/23 02:55:08;;;;;;;;;;;;;;;;;;5045089;28;19962;-54
2023/05/23 02:57:35;;;;;;;;;;;;;;;;;;5042855;28;19916;-55
2023/05/23 03:00:01;;;;;;;;;;;;;;;;;;5047937;28;19912;-55
2023/05/23 03:02:27;;;;;;;;;;;;;;;;;;5044867;28;19947;-55
2023/05/23 03:04:54;;;;;;;;;;;;;;;;;;5048548;28;20351;-55
2023/05/23 03:07:20;;;;;;;;;;;;;;;;;;5046014;28;19931;-55
2023/05/23 03:09:46;;;;;;;;;;;;;;;;;;5044036;28;19960;-55
2023/05/23 03:12:13;;;;;;;;;;;;;;;;;;5043732;28;20688;-54
2023/05/23 03:14:39;;;;;;;;;;;;;;;;;;5046670;28;19995;-55
2023/05/23 03:17:05;;;;;;;;;;;;;;;;;;5047044;28;19924;-55
2023/05/23 03:19:31;;;;;;;;;;;;;;;;;;5045954;28;19919;-54
2023/05/23 03:21:57;;;;;;;;;;;;;;;;;;5039979;28;20318;-55
2023/05/23 03:24:23;;;;;;;;;;;;;;;;;;5040558;28;20062;-54
2023/05/23 03:26:49;;;;;;;;;;;;;;;;;;5044687;28;20003;-54
2023/05/23 03:29:15;;;;;;;;;;;;;;;;;;5047480;28;20018;-54
2023/05/23 03:31:41;;;;;;;;;;;;;;;;;;5045171;28;19916;-55
2023/05/23 03:34:08;;;;;;;;;;;;;;;;;;5046154;28;20297;-55
2023/05/23 03:36:34;;;;;;;;;;;;;;;;;;5027484;28;19913;-54
2023/05/23 03:39:00;;;;;;;;;;;;;;;;;;5044998;28;19909;-54
2023/05/23 03:41:27;;;;;;;;;;;;;;;;;;5047181;28;19913;-54
2023/05/23 03:43:53;;;;;;;;;;;;;;;;;;5042898;28;19912;-54
2023/05/23 03:46:19;;;;;;;;;;;;;;;;;;5047007;28;20355;-55
2023/05/23 03:48:45;;;;;;;;;;;;;;;;;;5025310;28;19920;-54
2023/05/23 03:51:14;;;;;;;;;;;;;;;;;;5044362;28;19923;-55
2023/05/23 03:53:40;;;;;;;;;;;;;;;;;;5045780;28;21225;-54
2023/05/23 03:56:06;;;;;;;;;;;;;;;;;;5042866;28;19955;-54
2023/05/23 03:58:32;;;;;;;;;;;;;;;;;;5043247;28;20348;-55
2023/05/23 04:00:58;;;;;;;;;;;;;;;;;;5042617;28;19955;-53
2023/05/23 04:03:26;;;;;;;;;;;;;;;;;;5042794;28;19968;-54
2023/05/23 04:05:52;;;;;;;;;;;;;;;;;;5041707;28;19912;-54
2023/05/23 04:08:20;;;;;;;;;;;;;;;;;;5043221;28;19995;-55
2023/05/23 04:10:47;;;;;;;;;;;;;;;;;;5042174;28;19909;-54
2023/05/23 04:13:14;;;;;;;;;;;;;;;;;;5039159;28;20894;-54
2023/05/23 04:15:41;;;;;;;;;;;;;;;;;;5043448;28;19916;-55
2023/05/23 04:18:08;;;;;;;;;;;;;;;;;;5046788;28;19916;-54
2023/05/23 04:20:34;;;;;;;;;;;;;;;;;;5045467;28;20356;-58
2023/05/23 04:23:00;;;;;;;;;;;;;;;;;;5044380;28;20019;-54
2023/05/23 04:25:26;;;;;;;;;;;;;;;;;;5046438;28;19940;-55
2023/05/23 04:27:53;;;;;;;;;;;;;;;;;;5044666;28;19921;-54
2023/05/23 04:30:19;;;;;;;;;;;;;;;;;;5047422;28;20380;-54
2023/05/23 04:32:45;;;;;;;;;;;;;;;;;;5046843;28;20237;-55
2023/05/23 04:35:11;;;;;;;;;;;;;;;;;;5046036;28;19936;-54
2023/05/23 04:37:38;;;;;;;;;;;;;;;;;;5026009;28;19909;-54
2023/05/23 04:40:04;;;;;;;;;;;;;;;;;;5045075;28;20229;-55
2023/05/23 04:42:32;;;;;;;;;;;;;;;;;;5043960;28;19913;-54
2023/05/23 04:44:58;;;;;;;;;;;;;;;;;;5029701;28;19975;-54
2023/05/23 04:47:27;;;;;;;;;;;;;;;;;;5041819;28;19913;-55
2023/05/23 04:49:53;;;;;;;;;;;;;;;;;;5045476;28;19916;-54
2023/05/23 04:52:20;;;;;;;;;;;;;;;;;;5039955;28;19924;-55
2023/05/23 04:54:47;;;;;;;;;;;;;;;;;;5042041;28;20386;-54
2023/05/23 04:57:13;;;;;;;;;;;;;;;;;;5032951;28;20336;-54
2023/05/23 04:59:41;;;;;;;;;;;;;;;;;;5038063;28;19916;-55
2023/05/23 05:02:08;;;;;;;;;;;;;;;;;;5024303;28;19916;-55
2023/05/23 05:04:35;;;;;;;;;;;;;;;;;;5039821;28;20040;-55
2023/05/23 05:07:03;;;;;;;;;;;;;;;;;;5042596;28;19913;-55
2023/05/23 05:09:30;;;;;;;;;;;;;;;;;;5043699;28;19916;-55
2023/05/23 05:11:56;;;;;;;;;;;;;;;;;;5039451;28;19999;-55
2023/05/23 05:14:22;;;;;;;;;;;;;;;;;;5043705;28;19916;-54
2023/05/23 05:16:49;;;;;;;;;;;;;;;;;;5046685;28;19916;-55
2023/05/23 05:19:15;;;;;;;;;;;;;;;;;;5050881;28;19912;-55
2023/05/23 05:21:41;;;;;;;;;;;;;;;;;;5046855;28;19917;-55
2023/05/23 05:24:11;;;;;;;;;;;;;;;;;;5047560;28;19908;-57
2023/05/23 05:26:37;;;;;;;;;;;;;;;;;;5047684;28;20337;-55
2023/05/23 05:29:04;;;;;;;;;;;;;;;;;;5046004;28;19916;-55
2023/05/23 05:31:31;;;;;;;;;;;;;;;;;;5044270;28;19951;-55
2023/05/23 05:33:57;;;;;;;;;;;;;;;;;;5050947;28;19909;-55
2023/05/23 05:36:23;;;;;;;;;;;;;;;;;;5049156;28;19974;-54
2023/05/23 05:38:50;;;;;;;;;;;;;;;;;;5046549;28;19919;-55
2023/05/23 05:41:16;;;;;;;;;;;;;;;;;;5028340;28;20238;-55
2023/05/23 05:43:42;;;;;;;;;;;;;;;;;;5049271;28;19978;-56
2023/05/23 05:46:08;;;;;;;;;;;;;;;;;;5049470;28;19908;-56
2023/05/23 05:48:34;;;;;;;;;;;;;;;;;;5042487;28;19917;-55
2023/05/23 05:51:02;;;;;;;;;;;;;;;;;;5047854;28;20475;-56
2023/05/23 05:53:28;;;;;;;;;;;;;;;;;;5025602;28;19912;-55
2023/05/23 05:55:54;;;;;;;;;;;;;;;;;;5038959;28;19920;-55
2023/05/23 05:58:20;;;;;;;;;;;;;;;;;;5048211;28;19958;-55
2023/05/23 06:00:47;;;;;;;;;;;;;;;;;;5045020;28;19913;-56
2023/05/23 06:03:14;;;;;;;;;;;;;;;;;;5049694;28;20145;-55
2023/05/23 06:05:40;;;;;;;;;;;;;;;;;;5050215;28;19913;-55
2023/05/23 06:08:06;;;;;;;;;;;;;;;;;;5048598;28;20373;-56
2023/05/23 06:10:32;;;;;;;;;;;;;;;;;;5046747;28;19920;-56
2023/05/23 06:12:58;;;;;;;;;;;;;;;;;;5046807;28;20341;-56
2023/05/23 06:15:25;;;;;;;;;;;;;;;;;;5042677;28;19928;-55
2023/05/23 06:17:51;;;;;;;;;;;;;;;;;;5043149;28;19963;-54
2023/05/23 06:20:17;;;;;;;;;;;;;;;;;;5048458;28;19919;-54
2023/05/23 06:22:43;;;;;;;;;;;;;;;;;;5041663;28;19982;-54
2023/05/23 06:25:09;;;;;;;;;;;;;;;;;;5042616;28;19924;-54
2023/05/23 06:27:36;;;;;;;;;;;;;;;;;;5040952;28;19928;-55
2023/05/23 06:30:02;;;;;;;;;;;;;;;;;;5043892;28;19939;-55
2023/05/23 06:32:28;;;;;;;;;;;;;;;;;;5044335;28;19952;-56
2023/05/23 06:34:54;;;;;;;;;;;;;;;;;;5043739;28;19952;-55
2023/05/23 06:37:21;;;;;;;;;;;;;;;;;;5041729;28;20626;-55
2023/05/23 06:39:47;;;;;;;;;;;;;;;;;;5045994;28;20055;-55
2023/05/23 06:42:13;;;;;;;;;;;;;;;;;;5041124;28;20031;-55
2023/05/23 06:44:39;;;;;;;;;;;;;;;;;;5025110;28;20228;-55
2023/05/23 06:47:05;;;;;;;;;;;;;;;;;;5041859;28;19912;-56
2023/05/23 06:49:31;;;;;;;;;;;;;;;;;;5031391;28;20368;-55
2023/05/23 06:51:57;;;;;;;;;;;;;;;;;;5039200;28;19915;-54
2023/05/23 06:54:23;;;;;;;;;;;;;;;;;;5046837;28;19912;-55
2023/05/23 06:56:49;;;;;;;;;;;;;;;;;;5044641;28;19975;-55
2023/05/23 06:59:15;;;;;;;;;;;;;;;;;;5042783;28;20360;-55
2023/05/23 07:01:42;;;;;;;;;;;;;;;;;;5042982;28;19914;-54
2023/05/23 07:04:08;;;;;;;;;;;;;;;;;;5049686;28;19908;-55
2023/05/23 07:06:35;;;;;;;;;;;;;;;;;;5046608;28;19920;-55
2023/05/23 07:09:02;;;;;;;;;;;;;;;;;;5049190;28;20019;-54
2023/05/23 07:11:28;;;;;;;;;;;;;;;;;;5049230;28;19911;-55
2023/05/23 07:13:54;;;;;;;;;;;;;;;;;;5047050;28;19912;-55
2023/05/23 07:16:21;;;;;;;;;;;;;;;;;;5043542;28;19913;-55
2023/05/23 07:18:47;;;;;;;;;;;;;;;;;;5039352;28;19928;-54
2023/05/23 07:21:13;;;;;;;;;;;;;;;;;;5042126;28;19947;-55
2023/05/23 07:23:39;;;;;;;;;;;;;;;;;;5040610;28;19986;-56
2023/05/23 07:26:08;;;;;;;;;;;;;;;;;;5045296;28;20396;-56
2023/05/23 07:28:35;;;;;;;;;;;;;;;;;;5043071;28;19931;-55
2023/05/23 07:31:01;;;;;;;;;;;;;;;;;;5038549;28;20288;-55
2023/05/23 07:33:27;;;;;;;;;;;;;;;;;;5026916;28;19916;-55
2023/05/23 07:35:53;;;;;;;;;;;;;;;;;;5046655;28;19938;-56
2023/05/23 07:38:19;;;;;;;;;;;;;;;;;;5044595;28;19920;-56
2023/05/23 07:40:46;;;;;;;;;;;;;;;;;;5045005;28;19944;-56
2023/05/23 07:43:12;;;;;;;;;;;;;;;;;;5039668;28;19935;-55
2023/05/23 07:45:38;;;;;;;;;;;;;;;;;;5046621;28;19909;-55
2023/05/23 07:48:04;;;;;;;;;;;;;;;;;;5046467;28;20003;-55
2023/05/23 07:50:30;;;;;;;;;;;;;;;;;;5047454;28;19917;-55
2023/05/23 07:52:57;;;;;;;;;;;;;;;;;;5043721;28;19998;-55
2023/05/23 07:55:23;;;;;;;;;;;;;;;;;;5030179;28;20381;-55
2023/05/23 07:57:50;;;;;;;;;;;;;;;;;;5045455;28;19909;-55
2023/05/23 08:00:16;;;;;;;;;;;;;;;;;;5047779;28;19912;-55
2023/05/23 08:02:42;;;;;;;;;;;;;;;;;;5028228;28;20240;-55
2023/05/23 08:05:08;;;;;;;;;;;;;;;;;;5044121;28;19917;-54
2023/05/23 08:07:34;;;;;;;;;;;;;;;;;;5039407;28;20386;-54
2023/05/23 08:10:01;;;;;;;;;;;;;;;;;;5023161;28;20371;-54
2023/05/23 08:12:27;;;;;;;;;;;;;;;;;;5044468;28;19913;-54
2023/05/23 08:14:53;;;;;;;;;;;;;;;;;;5045395;28;19912;-54
2023/05/23 08:17:19;;;;;;;;;;;;;;;;;;5044646;28;19912;-54
2023/05/23 08:19:45;;;;;;;;;;;;;;;;;;5047548;28;20368;-54
2023/05/23 08:22:12;;;;;;;;;;;;;;;;;;5044151;28;20351;-54
2023/05/23 08:24:38;;;;;;;;;;;;;;;;;;5036601;28;19947;-54
2023/05/23 08:27:06;;;;;;;;;;;;;;;;;;5040363;28;19920;-54
2023/05/23 08:29:33;;;;;;;;;;;;;;;;;;5042660;28;19921;-53
2023/05/23 08:32:00;;;;;;;;;;;;;;;;;;5043086;28;20265;-53
2023/05/23 08:34:26;;;;;;;;;;;;;;;;;;5015840;28;19913;-53
2023/05/23 08:36:52;;;;;;;;;;;;;;;;;;5039306;28;19921;-53
2023/05/23 08:39:18;;;;;;;;;;;;;;;;;;5041071;28;20006;-52
2023/05/23 08:41:45;;;;;;;;;;;;;;;;;;5041613;28;19913;-52
2023/05/23 08:44:11;;;;;;;;;;;;;;;;;;5043602;28;19958;-53
2023/05/23 08:46:37;;;;;;;;;;;;;;;;;;5040178;28;19919;-52
2023/05/23 08:49:03;;;;;;;;;;;;;;;;;;5045240;28;19916;-53
2023/05/23 08:51:30;;;;;;;;;;;;;;;;;;5041669;28;19993;-53
2023/05/23 08:53:57;;;;;;;;;;;;;;;;;;5046106;28;20015;-55
2023/05/23 08:56:24;;;;;;;;;;;;;;;;;;5045271;28;19920;-54
2023/05/23 08:58:52;;;;;;;;;;;;;;;;;;5039465;28;19913;-53
2023/05/23 09:01:19;;;;;;;;;;;;;;;;;;5043992;28;19966;-53
2023/05/23 09:03:45;;;;;;;;;;;;;;;;;;5035229;28;19909;-54
2023/05/23 09:06:11;;;;;;;;;;;;;;;;;;5038730;28;20444;-53
2023/05/23 09:08:37;;;;;;;;;;;;;;;;;;5039566;28;20252;-53
2023/05/23 09:11:03;;;;;;;;;;;;;;;;;;5044960;28;19944;-53
2023/05/23 09:13:30;;;;;;;;;;;;;;;;;;5027315;28;20348;-53
2023/05/23 09:15:58;;;;;;;;;;;;;;;;;;5042252;28;19912;-53
2023/05/23 09:18:25;;;;;;;;;;;;;;;;;;5043423;28;19966;-53
2023/05/23 09:20:51;;;;;;;;;;;;;;;;;;5039833;28;20299;-56
2023/05/23 09:23:17;;;;;;;;;;;;;;;;;;5024325;28;19982;-54
2023/05/23 09:25:43;;;;;;;;;;;;;;;;;;5041238;28;19966;-53
2023/05/23 09:28:09;;;;;;;;;;;;;;;;;;5061534;28;19951;-53
2023/05/23 09:30:35;;;;;;;;;;;;;;;;;;5066765;28;19923;-53
2023/05/23 09:33:02;;;;;;;;;;;;;;;;;;5060413;28;20312;-53
2023/05/23 09:35:28;;;;;;;;;;;;;;;;;;5068136;28;19912;-53
2023/05/23 09:37:57;;;;;;;;;;;;;;;;;;5067446;28;19919;-54
2023/05/23 09:40:23;;;;;;;;;;;;;;;;;;5062349;28;19909;-53
2023/05/23 09:42:50;;;;;;;;;;;;;;;;;;5063122;28;19916;-53
2023/05/23 09:45:16;;;;;;;;;;;;;;;;;;5061556;28;20355;-53
2023/05/23 09:47:42;;;;;;;;;;;;;;;;;;5064438;28;19909;-53
2023/05/23 09:50:08;;;;;;;;;;;;;;;;;;5066525;28;19954;-53
2023/05/23 09:52:34;;;;;;;;;;;;;;;;;;5062013;28;20007;-53
2023/05/23 09:55:00;;;;;;;;;;;;;;;;;;5045300;28;20376;-52
2023/05/23 09:57:27;;;;;;;;;;;;;;;;;;5058075;28;20407;-52
2023/05/23 09:59:55;;;;;;;;;;;;;;;;;;5059077;28;19968;-51
2023/05/23 10:02:21;;;;;;;;;;;;;;;;;;5064959;28;20283;-52
2023/05/23 10:04:47;;;;;;;;;;;;;;;;;;5068057;28;19959;-53
2023/05/23 10:07:14;;;;;;;;;;;;;;;;;;5067310;28;19912;-52
2023/05/23 10:09:41;;;;;;;;;;;;;;;;;;5070092;28;19912;-52
2023/05/23 10:12:07;;;;;;;;;;;;;;;;;;5067044;28;20328;-52
2023/05/23 10:14:33;;;;;;;;;;;;;;;;;;5063127;28;20299;-53
2023/05/23 10:16:59;;;;;;;;;;;;;;;;;;5068104;28;19946;-52
2023/05/23 10:19:25;;;;;;;;;;;;;;;;;;5064880;28;19913;-53
2023/05/23 10:21:52;;;;;;;;;;;;;;;;;;5053301;28;19951;-52
2023/05/23 10:24:18;;;;;;;;;;;;;;;;;;5061904;28;20355;-52
2023/05/23 10:26:45;;;;;;;;;;;;;;;;;;5055511;28;19956;-54
2023/05/23 10:29:11;;;;;;;;;;;;;;;;;;5045254;28;19966;-52
2023/05/23 10:31:37;;;;;;;;;;;;;;;;;;5047590;28;20377;-52
2023/05/23 10:34:03;;;;;;;;;;;;;;;;;;5045904;28;19935;-53
2023/05/23 10:36:29;;;;;;;;;;;;;;;;;;5044815;28;19919;-53
2023/05/23 10:38:55;;;;;;;;;;;;;;;;;;5046051;28;19988;-53
2023/05/23 10:41:22;;;;;;;;;;;;;;;;;;5046253;28;20007;-52
2023/05/23 10:43:47;;;;;;;;;;;;;;;;;;5042664;28;19919;-53
2023/05/23 10:46:13;;;;;;;;;;;;;;;;;;5045567;28;19951;-53
2023/05/23 10:48:39;;;;;;;;;;;;;;;;;;5045497;28;20045;-53
2023/05/23 10:51:05;;;;;;;;;;;;;;;;;;5046278;28;19963;-53
2023/05/23 10:53:31;;;;;;;;;;;;;;;;;;5047873;28;20005;-53
2023/05/23 10:55:57;;;;;;;;;;;;;;;;;;5044157;28;20356;-54
2023/05/23 10:58:24;;;;;;;;;;;;;;;;;;5047382;28;19913;-54
2023/05/23 11:00:50;;;;;;;;;;;;;;;;;;5046387;28;20417;-53
2023/05/23 11:03:16;;;;;;;;;;;;;;;;;;5045105;28;20371;-52
2023/05/23 11:05:42;;;;;;;;;;;;;;;;;;5042109;28;19952;-53
2023/05/23 11:08:08;;;;;;;;;;;;;;;;;;5044383;28;20085;-52
2023/05/23 11:10:35;;;;;;;;;;;;;;;;;;5044527;28;19928;-53
2023/05/23 11:13:01;;;;;;;;;;;;;;;;;;5041585;28;20198;-53
2023/05/23 11:15:27;;;;;;;;;;;;;;;;;;5043719;28;19969;-54
2023/05/23 11:17:53;;;;;;;;;;;;;;;;;;5045634;28;19913;-53
2023/05/23 11:20:22;;;;;;;;;;;;;;;;;;5046567;28;19916;-53
2023/05/23 11:22:48;;;;;;;;;;;;;;;;;;5045472;28;19913;-54
2023/05/23 11:25:15;;;;;;;;;;;;;;;;;;5040418;28;19971;-54
2023/05/23 11:27:41;;;;;;;;;;;;;;;;;;5042652;28;20576;-52
2023/05/23 11:30:08;;;;;;;;;;;;;;;;;;5040414;28;19970;-52
2023/05/23 11:32:34;;;;;;;;;;;;;;;;;;5046549;28;19920;-53
2023/05/23 11:35:00;;;;;;;;;;;;;;;;;;5041424;28;19912;-53
2023/05/23 11:37:26;;;;;;;;;;;;;;;;;;5040263;28;19965;-52
2023/05/23 11:39:52;;;;;;;;;;;;;;;;;;5039379;28;20062;-52
2023/05/23 11:42:18;;;;;;;;;;;;;;;;;;5040888;28;19962;-52
2023/05/23 11:44:44;;;;;;;;;;;;;;;;;;5038921;28;20412;-52
2023/05/23 11:47:10;;;;;;;;;;;;;;;;;;5039484;28;19917;-53
2023/05/23 11:49:36;;;;;;;;;;;;;;;;;;5044128;28;19917;-53
2023/05/23 11:52:03;;;;;;;;;;;;;;;;;;5041637;28;19916;-53
2023/05/23 11:54:29;;;;;;;;;;;;;;;;;;5046190;28;20292;-52
2023/05/23 11:56:55;;;;;;;;;;;;;;;;;;5047704;28;20000;-53
2023/05/23 11:59:21;;;;;;;;;;;;;;;;;;5044725;28;19939;-53
2023/05/23 12:01:47;;;;;;;;;;;;;;;;;;5040009;28;19913;-52
2023/05/23 12:04:13;;;;;;;;;;;;;;;;;;5043328;28;19919;-53
2023/05/23 12:06:42;;;;;;;;;;;;;;;;;;5041271;28;19976;-54
2023/05/23 12:09:08;;;;;;;;;;;;;;;;;;5043280;28;19951;-53
2023/05/23 12:11:34;;;;;;;;;;;;;;;;;;5030967;28;20340;-53
2023/05/23 12:14:05;;;;;;;;;;;;;;;;;;5048359;28;19913;-54
2023/05/23 12:16:31;;;;;;;;;;;;;;;;;;5036633;28;20659;-53
2023/05/23 12:18:57;;;;;;;;;;;;;;;;;;5041429;28;19975;-52
2023/05/23 12:21:23;;;;;;;;;;;;;;;;;;5042756;28;20371;-53
2023/05/23 12:23:50;;;;;;;;;;;;;;;;;;5044591;28;19920;-53
2023/05/23 12:26:16;;;;;;;;;;;;;;;;;;5041946;28;19966;-53
2023/05/23 12:28:43;;;;;;;;;;;;;;;;;;5044583;28;19927;-53
2023/05/23 12:31:09;;;;;;;;;;;;;;;;;;5044423;28;20351;-53
2023/05/23 12:33:35;;;;;;;;;;;;;;;;;;5041190;28;19920;-53
2023/05/23 12:36:01;;;;;;;;;;;;;;;;;;5041885;28;19923;-54
2023/05/23 12:38:27;;;;;;;;;;;;;;;;;;5044853;28;19967;-53
2023/05/23 12:40:53;;;;;;;;;;;;;;;;;;5029451;28;19912;-54
2023/05/23 12:43:20;;;;;;;;;;;;;;;;;;5045026;28;20262;-53
2023/05/23 12:45:46;;;;;;;;;;;;;;;;;;5042112;28;20010;-54
2023/05/23 12:48:12;;;;;;;;;;;;;;;;;;5036346;28;19995;-54
2023/05/23 12:50:38;;;;;;;;;;;;;;;;;;5041620;28;19951;-54
2023/05/23 12:53:04;;;;;;;;;;;;;;;;;;5047037;28;19951;-53
2023/05/23 12:55:30;;;;;;;;;;;;;;;;;;5049219;28;19905;-53
2023/05/23 12:57:57;;;;;;;;;;;;;;;;;;5044877;28;20010;-52
2023/05/23 13:00:23;;;;;;;;;;;;;;;;;;5043422;28;19923;-53
2023/05/23 13:02:49;;;;;;;;;;;;;;;;;;5042887;28;19913;-53
2023/05/23 13:05:15;;;;;;;;;;;;;;;;;;5023439;28;19975;-52
2023/05/23 13:07:41;;;;;;;;;;;;;;;;;;5038565;28;19991;-54
2023/05/23 13:10:07;;;;;;;;;;;;;;;;;;5030037;28;19926;-56
2023/05/23 13:12:33;;;;;;;;;;;;;;;;;;5039093;28;19924;-56
2023/05/23 13:14:59;;;;;;;;;;;;;;;;;;5046239;28;20000;-54
2023/05/23 13:17:25;;;;;;;;;;;;;;;;;;5048608;28;20438;-54
2023/05/23 13:19:51;;;;;;;;;;;;;;;;;;5043394;28;19909;-54
2023/05/23 13:22:17;;;;;;;;;;;;;;;;;;5044609;28;20019;-55
2023/05/23 13:24:45;;;;;;;;;;;;;;;;;;5046149;28;19948;-55
2023/05/23 13:27:11;;;;;;;;;;;;;;;;;;5041898;28;19975;-55
2023/05/23 13:29:37;;;;;;;;;;;;;;;;;;5039670;28;19923;-55
2023/05/23 13:32:03;;;;;;;;;;;;;;;;;;5047632;28;20432;-52
2023/05/23 13:34:29;;;;;;;;;;;;;;;;;;5045222;28;20013;-54
2023/05/23 13:36:55;;;;;;;;;;;;;;;;;;5049005;28;19985;-54
2023/05/23 13:39:22;;;;;;;;;;;;;;;;;;5048322;28;19909;-55
2023/05/23 13:41:48;;;;;;;;;;;;;;;;;;5046602;28;19920;-55
2023/05/23 13:44:14;;;;;;;;;;;;;;;;;;5043352;28;19920;-54
2023/05/23 13:46:41;;;;;;;;;;;;;;;;;;5052486;28;19911;-56
2023/05/23 13:49:07;;;;;;;;;;;;;;;;;;5051578;28;19944;-57
2023/05/23 13:51:35;;;;;;;;;;;;;;;;;;5048850;28;19963;-56
2023/05/23 13:54:01;;;;;;;;;;;;;;;;;;5050852;28;19917;-56
2023/05/23 13:56:27;;;;;;;;;;;;;;;;;;5052108;28;20354;-56
2023/05/23 13:58:53;;;;;;;;;;;;;;;;;;5041913;28;19992;-57
2023/05/23 14:01:19;;;;;;;;;;;;;;;;;;5041290;28;19915;-54
2023/05/23 14:03:45;;;;;;;;;;;;;;;;;;5040170;28;19944;-54
2023/05/23 14:06:12;;;;;;;;;;;;;;;;;;5042972;28;19909;-56
2023/05/23 14:08:38;;;;;;;;;;;;;;;;;;5041476;28;19917;-56
2023/05/23 14:11:04;;;;;;;;;;;;;;;;;;5044524;28;19909;-57
2023/05/23 14:13:30;;;;;;;;;;;;;;;;;;5045861;28;20287;-56
2023/05/23 14:15:56;;;;;;;;;;;;;;;;;;5042067;28;20006;-57
2023/05/23 14:18:22;;;;;;;;;;;;;;;;;;5045799;28;20252;-56
2023/05/23 14:20:48;;;;;;;;;;;;;;;;;;5021573;28;19960;-57
2023/05/23 14:23:14;;;;;;;;;;;;;;;;;;5042531;28;20449;-56
2023/05/23 14:25:40;;;;;;;;;;;;;;;;;;5041432;28;20444;-56
2023/05/23 14:28:06;;;;;;;;;;;;;;;;;;5048851;28;19926;-56
2023/05/23 14:30:32;;;;;;;;;;;;;;;;;;5068838;28;20502;-56
2023/05/23 14:32:58;;;;;;;;;;;;;;;;;;5070141;28;19912;-56
2023/05/23 14:35:25;;;;;;;;;;;;;;;;;;5066712;28;19999;-56
2023/05/23 14:37:51;;;;;;;;;;;;;;;;;;5064364;28;20226;-56
2023/05/23 14:40:17;;;;;;;;;;;;;;;;;;5068084;28;19918;-54
2023/05/23 14:42:43;;;;;;;;;;;;;;;;;;5066616;28;19924;-54
2023/05/23 14:45:09;;;;;;;;;;;;;;;;;;5065148;28;20257;-54
2023/05/23 14:47:36;;;;;;;;;;;;;;;;;;5070144;28;19990;-54
2023/05/23 14:50:02;;;;;;;;;;;;;;;;;;5061042;28;19996;-57
2023/05/23 14:52:31;;;;;;;;;;;;;;;;;;5064564;28;20249;-56
2023/05/23 14:54:57;;;;;;;;;;;;;;;;;;5062142;28;20334;-56
2023/05/23 14:57:23;;;;;;;;;;;;;;;;;;5064651;28;19996;-55
2023/05/23 14:59:49;;;;;;;;;;;;;;;;;;5064168;28;19912;-57
2023/05/23 15:02:16;;;;;;;;;;;;;;;;;;5061001;28;20049;-60
2023/05/23 15:04:42;;;;;;;;;;;;;;;;;;5066128;28;19908;-57
2023/05/23 15:07:08;;;;;;;;;;;;;;;;;;5051125;28;19912;-56
2023/05/23 15:09:34;;;;;;;;;;;;;;;;;;5061528;28;19928;-57
2023/05/23 15:12:00;;;;;;;;;;;;;;;;;;5057198;28;20611;-57
2023/05/23 15:14:28;;;;;;;;;;;;;;;;;;5066026;28;19908;-56
2023/05/23 15:16:54;;;;;;;;;;;;;;;;;;5063733;28;20630;-55
2023/05/23 15:19:21;;;;;;;;;;;;;;;;;;5059225;28;20378;-56
2023/05/23 15:21:46;;;;;;;;;;;;;;;;;;5062881;28;19989;-56
2023/05/23 15:24:12;;;;;;;;;;;;;;;;;;5060580;28;19920;-56
2023/05/23 15:26:39;;;;;;;;;;;;;;;;;;5065316;28;19916;-56
2023/05/23 15:29:08;;;;;;;;;;;;;;;;;;5044789;28;20005;-56
2023/05/23 15:31:34;;;;;;;;;;;;;;;;;;5042887;28;19913;-56
2023/05/23 15:34:01;;;;;;;;;;;;;;;;;;5041515;28;20016;-56
2023/05/23 15:36:27;;;;;;;;;;;;;;;;;;5045360;28;20335;-56
2023/05/23 15:38:53;;;;;;;;;;;;;;;;;;5037237;28;19955;-57
2023/05/23 15:41:20;;;;;;;;;;;;;;;;;;5046658;28;19967;-56
2023/05/23 15:43:46;;;;;;;;;;;;;;;;;;5044016;28;20046;-57
2023/05/23 15:46:12;;;;;;;;;;;;;;;;;;5019852;28;20011;-57
2023/05/23 15:48:38;;;;;;;;;;;;;;;;;;5045142;28;20066;-59
2023/05/23 15:51:04;;;;;;;;;;;;;;;;;;5041093;28;19913;-57
2023/05/23 15:53:30;;;;;;;;;;;;;;;;;;5046057;28;19963;-57
2023/05/23 15:55:56;;;;;;;;;;;;;;;;;;5047526;28;19927;-57
2023/05/23 15:58:22;;;;;;;;;;;;;;;;;;5036991;28;20008;-60
2023/05/23 16:00:48;;;;;;;;;;;;;;;;;;5024685;28;19982;-57
2023/05/23 16:03:15;;;;;;;;;;;;;;;;;;5038598;28;19917;-56
2023/05/23 16:05:41;;;;;;;;;;;;;;;;;;5042599;28;19912;-56
2023/05/23 16:08:07;;;;;;;;;;;;;;;;;;5038944;28;19959;-56
2023/05/23 16:10:33;;;;;;;;;;;;;;;;;;5043931;28;19913;-57
2023/05/23 16:12:59;;;;;;;;;;;;;;;;;;5021913;28;20339;-57
2023/05/23 16:15:25;;;;;;;;;;;;;;;;;;5040384;28;20001;-57
2023/05/23 16:17:51;;;;;;;;;;;;;;;;;;5038753;28;19937;-57
2023/05/23 16:20:17;;;;;;;;;;;;;;;;;;5046263;28;19915;-55
2023/05/23 16:22:44;;;;;;;;;;;;;;;;;;5044387;28;19940;-55
2023/05/23 16:25:10;;;;;;;;;;;;;;;;;;5044256;28;19916;-54
2023/05/23 16:27:37;;;;;;;;;;;;;;;;;;5044738;28;19916;-55
2023/05/23 16:30:03;;;;;;;;;;;;;;;;;;5043588;28;19943;-55
2023/05/23 16:32:29;;;;;;;;;;;;;;;;;;5023226;28;19952;-55
2023/05/23 16:34:55;;;;;;;;;;;;;;;;;;5044386;28;20312;-58
2023/05/23 16:37:22;;;;;;;;;;;;;;;;;;5041056;28;20003;-57
2023/05/23 16:39:48;;;;;;;;;;;;;;;;;;5042946;28;19912;-58